Time;durP1;ratioP1;P1;durP2;ratioP2;P2;SDS_P1;SDS_P2;PMS_P1;PMS_P2;Temp;Humidity;BMP_temperature;BMP_pressure;BME280_temperature;BME280_humidity;BME280_pressure;Samples;Min_cycle;Max_cycle;Signal;HPM_P1;HPM_P2
2022/03/01 00:01:29;;;;;;;7.57;6.87;;;;;;;2.82;100.00;100340.16;5053291;28;20200;-68
2022/03/01 00:03:57;;;;;;;8.80;6.80;;;;;;;2.88;100.00;100337.72;5053417;28;20565;-68
2022/03/01 00:06:24;;;;;;;9.13;7.57;;;;;;;2.93;100.00;100343.72;5053461;28;20665;-68
2022/03/01 00:08:53;;;;;;;7.40;6.70;;;;;;;2.96;100.00;100337.84;5052331;28;20203;-68
2022/03/01 00:11:21;;;;;;;7.03;6.63;;;;;;;3.04;99.62;100341.34;5051916;28;20207;-68
2022/03/01 00:13:48;;;;;;;7.13;6.63;;;;;;;3.03;99.57;100345.56;5052987;28;20291;-68
2022/03/01 00:16:15;;;;;;;6.83;6.13;;;;;;;3.05;99.51;100333.78;5052411;28;20247;-68
2022/03/01 00:18:41;;;;;;;6.07;5.67;;;;;;;3.05;99.36;100333.78;5053240;28;20200;-68
2022/03/01 00:21:10;;;;;;;6.53;6.10;;;;;;;3.06;98.97;100340.56;5052803;28;20201;-68
2022/03/01 00:23:36;;;;;;;6.60;6.03;;;;;;;3.10;98.76;100332.16;5053063;28;20900;-68
2022/03/01 00:26:03;;;;;;;9.23;7.97;;;;;;;3.14;98.69;100341.50;5052779;28;20201;-68
2022/03/01 00:28:30;;;;;;;20.53;11.40;;;;;;;3.18;98.47;100325.53;5052829;28;20204;-68
2022/03/01 00:30:57;;;;;;;12.17;8.40;;;;;;;3.21;98.33;100323.84;5051193;28;20577;-68
2022/03/01 00:33:24;;;;;;;16.53;10.27;;;;;;;3.16;98.18;100322.13;5052617;28;20201;-68
2022/03/01 00:35:51;;;;;;;16.27;9.53;;;;;;;3.12;98.54;100320.38;5052902;28;20688;-68
2022/03/01 00:38:19;;;;;;;11.10;8.43;;;;;;;3.05;99.19;100313.50;5052596;28;20758;-68
2022/03/01 00:40:46;;;;;;;6.83;6.33;;;;;;;3.01;99.76;100316.81;5052499;28;20219;-68
2022/03/01 00:43:13;;;;;;;5.43;5.00;;;;;;;2.85;100.00;100309.81;5052390;28;20236;-68
2022/03/01 00:45:40;;;;;;;4.30;4.00;;;;;;;2.75;100.00;100312.22;5052542;28;20203;-68
2022/03/01 00:48:07;;;;;;;6.20;5.87;;;;;;;2.72;100.00;100310.47;5052460;28;20668;-68
2022/03/01 00:50:34;;;;;;;9.87;7.13;;;;;;;2.57;100.00;100315.28;5052368;28;20677;-68
2022/03/01 00:53:01;;;;;;;32.70;15.97;;;;;;;2.36;100.00;100287.94;5051890;28;20200;-68
2022/03/01 00:55:29;;;;;;;15.77;11.53;;;;;;;2.25;100.00;100303.75;5052355;28;20554;-68
2022/03/01 00:57:56;;;;;;;17.53;10.17;;;;;;;2.21;100.00;100296.94;5052354;28;20680;-68
2022/03/01 01:00:23;;;;;;;9.27;8.17;;;;;;;2.15;100.00;100297.69;5052359;28;20239;-68
2022/03/01 01:02:50;;;;;;;8.37;7.57;;;;;;;2.07;100.00;100278.97;5052352;28;20205;-68
2022/03/01 01:05:17;;;;;;;6.80;6.40;;;;;;;2.20;100.00;100295.25;5051957;28;20197;-68
2022/03/01 01:07:45;;;;;;;8.40;7.40;;;;;;;2.13;100.00;100298.50;5051036;28;20706;-68
2022/03/01 01:10:12;;;;;;;14.83;9.93;;;;;;;2.13;100.00;100289.25;5050678;28;20197;-68
2022/03/01 01:12:41;;;;;;;14.17;10.53;;;;;;;2.13;100.00;100284.19;5051665;28;20228;-67
2022/03/01 01:15:10;;;;;;;13.70;11.20;;;;;;;2.16;100.00;100298.56;5052176;28;20287;-68
2022/03/01 01:17:37;;;;;;;11.00;9.73;;;;;;;2.05;100.00;100291.63;5051775;28;20219;-68
2022/03/01 01:20:06;;;;;;;11.03;9.93;;;;;;;1.99;100.00;100288.97;5051203;28;20779;-68
2022/03/01 01:22:42;;;;;;;9.90;9.03;;;;;;;2.04;100.00;100294.97;5051353;28;20204;-68
2022/03/01 01:25:11;;;;;;;11.50;9.37;;;;;;;2.09;100.00;100287.47;5051995;28;20206;-68
2022/03/01 01:27:41;;;;;;;20.37;12.77;;;;;;;2.13;100.00;100290.06;5051427;28;20199;-68
2022/03/01 01:30:10;;;;;;;24.67;15.70;;;;;;;2.15;100.00;100290.09;5051872;28;20839;-68
2022/03/01 01:32:37;;;;;;;21.80;13.53;;;;;;;2.17;100.00;100290.13;5051309;28;20201;-68
2022/03/01 01:35:04;;;;;;;16.60;11.57;;;;;;;2.22;100.00;100291.91;5051455;28;20208;-68
2022/03/01 01:37:31;;;;;;;9.37;8.43;;;;;;;2.23;100.00;100295.31;5051152;28;20638;-68
2022/03/01 01:39:58;;;;;;;8.43;7.73;;;;;;;2.19;100.00;100288.47;5049421;28;20207;-68
2022/03/01 01:42:25;;;;;;;9.67;8.73;;;;;;;2.18;100.00;100291.81;5050726;28;20201;-68
2022/03/01 01:44:53;;;;;;;9.30;8.33;;;;;;;2.23;100.00;100282.66;5049942;28;20588;-68
2022/03/01 01:47:20;;;;;;;9.13;8.40;;;;;;;2.22;100.00;100293.59;5049490;28;20665;-68
2022/03/01 01:49:47;;;;;;;9.03;7.53;;;;;;;2.18;100.00;100291.81;5049384;28;20211;-68
2022/03/01 01:52:14;;;;;;;8.40;7.60;;;;;;;2.20;100.00;100296.09;5049344;28;20657;-68
2022/03/01 01:54:41;;;;;;;10.93;8.20;;;;;;;2.19;100.00;100296.94;5049371;28;20685;-68
2022/03/01 01:57:16;;;;;;;9.93;8.03;;;;;;;2.20;100.00;100292.72;5049188;28;20307;-68
2022/03/01 01:59:43;;;;;;;7.53;6.93;;;;;;;2.23;100.00;100295.31;5050307;28;20584;-68
2022/03/01 02:02:16;;;;;;;8.83;6.90;;;;;;;2.25;100.00;100301.22;5051006;28;20209;-68
2022/03/01 02:04:43;;;;;;;7.43;6.93;;;;;;;2.23;100.00;100285.19;5050137;28;20782;-68
2022/03/01 02:07:12;;;;;;;8.27;7.43;;;;;;;2.26;100.00;100286.09;5049830;28;20803;-68
2022/03/01 02:09:39;;;;;;;9.67;8.27;;;;;;;2.27;100.00;100281.88;5050808;28;20211;-68
2022/03/01 02:12:07;;;;;;;8.47;7.77;;;;;;;2.20;100.00;100280.09;5050437;28;20262;-67
2022/03/01 02:14:35;;;;;;;13.40;8.47;;;;;;;2.12;100.00;100264.75;5051132;28;20722;-68
2022/03/01 02:17:06;;;;;;;7.57;6.87;;;;;;;2.18;100.00;100277.50;5050786;28;20223;-67
2022/03/01 02:19:34;;;;;;;9.03;7.30;;;;;;;2.13;100.00;100284.19;5051008;28;20577;-68
2022/03/01 02:22:03;;;;;;;8.43;7.63;;;;;;;2.08;100.00;100273.97;5050824;28;20573;-68
2022/03/01 02:24:31;;;;;;;22.60;14.93;;;;;;;2.05;100.00;100275.59;5050941;28;20208;-68
2022/03/01 02:26:59;;;;;;;15.80;10.77;;;;;;;2.06;100.00;100264.66;5050821;28;20255;-68
2022/03/01 02:29:28;;;;;;;9.67;8.77;;;;;;;1.92;100.00;100241.66;5050572;28;20581;-68
2022/03/01 02:31:57;;;;;;;8.67;8.07;;;;;;;2.06;100.00;100257.94;5050781;28;20196;-68
2022/03/01 02:34:24;;;;;;;9.77;8.87;;;;;;;2.08;100.00;100256.25;5050829;28;20760;-68
2022/03/01 02:36:51;;;;;;;13.37;9.33;;;;;;;2.09;100.00;100237.75;5050645;28;20217;-68
2022/03/01 02:39:20;;;;;;;12.27;11.00;;;;;;;2.13;100.00;100245.38;5050666;28;20279;-68
2022/03/01 02:41:47;;;;;;;11.43;10.30;;;;;;;2.10;100.00;100244.47;5050664;28;20200;-68
2022/03/01 02:44:15;;;;;;;8.87;8.17;;;;;;;2.14;100.00;100247.91;5050657;28;20415;-68
2022/03/01 02:46:42;;;;;;;7.97;7.47;;;;;;;2.11;100.00;100246.19;5050760;28;20200;-68
2022/03/01 02:49:10;;;;;;;8.40;7.77;;;;;;;2.13;100.00;100243.72;5049448;28;20202;-68
2022/03/01 02:51:37;;;;;;;9.17;8.43;;;;;;;2.16;100.00;100242.91;5050548;28;20288;-67
2022/03/01 02:54:05;;;;;;;7.23;6.80;;;;;;;2.09;100.00;100237.75;5051236;28;20208;-67
2022/03/01 02:56:34;;;;;;;7.80;7.17;;;;;;;2.05;100.00;100225.88;5054452;28;20220;-67
2022/03/01 02:59:00;;;;;;;8.90;8.10;;;;;;;2.06;100.00;100231.78;5053535;28;20208;-68
2022/03/01 03:01:29;;;;;;;8.93;8.13;;;;;;;2.08;100.00;100240.22;5054441;28;20201;-67
2022/03/01 03:03:56;;;;;;;9.07;8.47;;;;;;;2.04;100.00;100234.28;5053675;28;20644;-68
2022/03/01 03:06:23;;;;;;;9.73;8.97;;;;;;;1.98;100.00;100234.16;5054038;28;20208;-67
2022/03/01 03:08:50;;;;;;;8.60;7.90;;;;;;;1.95;100.00;100229.06;5054472;28;20573;-67
2022/03/01 03:11:17;;;;;;;16.00;10.20;;;;;;;1.90;100.00;100233.19;5052997;28;20744;-67
2022/03/01 03:13:45;;;;;;;21.00;11.03;;;;;;;1.88;100.00;100233.97;5054417;28;20720;-68
2022/03/01 03:16:12;;;;;;;24.93;10.17;;;;;;;1.85;100.00;100232.25;5054256;28;20203;-68
2022/03/01 03:18:39;;;;;;;21.13;10.23;;;;;;;1.87;100.00;100243.25;5054234;28;20280;-68
2022/03/01 03:21:06;;;;;;;11.17;9.00;;;;;;;1.83;100.00;100230.53;5053957;28;20287;-68
2022/03/01 03:23:34;;;;;;;18.83;11.13;;;;;;;1.93;100.00;100245.88;5053755;28;20192;-67
2022/03/01 03:26:01;;;;;;;18.77;9.83;;;;;;;1.90;100.00;100244.97;5052580;28;20201;-68
2022/03/01 03:28:28;;;;;;;10.03;9.10;;;;;;;1.91;100.00;100242.47;5052181;28;20291;-67
2022/03/01 03:30:57;;;;;;;10.27;8.73;;;;;;;1.84;100.00;100232.22;5053043;28;20199;-68
2022/03/01 03:33:23;;;;;;;11.90;8.53;;;;;;;1.94;100.00;100241.69;5053769;28;20662;-68
2022/03/01 03:35:51;;;;;;;8.67;7.83;;;;;;;1.94;100.00;100247.56;5053761;28;21627;-68
2022/03/01 03:38:17;;;;;;;11.27;9.83;;;;;;;1.92;100.00;100249.22;5053621;28;20696;-68
2022/03/01 03:40:44;;;;;;;12.17;9.20;;;;;;;1.94;100.00;100250.09;5053890;28;20572;-68
2022/03/01 03:43:11;;;;;;;11.07;10.07;;;;;;;1.93;100.00;100245.88;5053800;28;20207;-68
2022/03/01 03:45:39;;;;;;;11.33;10.27;;;;;;;1.94;100.00;100247.56;5053642;28;20669;-67
2022/03/01 03:48:07;;;;;;;11.80;10.03;;;;;;;1.94;100.00;100237.47;5053857;28;20646;-68
2022/03/01 03:50:34;;;;;;;11.30;9.23;;;;;;;1.96;100.00;100240.88;5052135;28;20204;-68
2022/03/01 03:53:02;;;;;;;12.23;9.07;;;;;;;1.89;100.00;100217.97;5048023;28;20208;-68
2022/03/01 03:55:29;;;;;;;10.50;9.10;;;;;;;2.00;100.00;100241.78;5052383;28;20247;-68
2022/03/01 03:57:56;;;;;;;10.30;9.30;;;;;;;2.00;100.00;100237.56;5051633;28;20303;-68
2022/03/01 04:00:23;;;;;;;10.03;9.03;;;;;;;2.00;100.00;100235.03;5052210;28;20219;-68
2022/03/01 04:02:51;;;;;;;9.53;8.40;;;;;;;1.98;100.00;100229.09;5051755;28;20239;-68
2022/03/01 04:05:20;;;;;;;13.53;9.67;;;;;;;1.94;100.00;100221.47;5051732;28;20204;-68
2022/03/01 04:07:48;;;;;;;16.67;10.53;;;;;;;2.00;100.00;100227.44;5046555;28;20211;-68
2022/03/01 04:10:16;;;;;;;10.60;9.53;;;;;;;1.95;100.00;100213.88;5053505;28;20584;-68
2022/03/01 04:12:44;;;;;;;10.23;9.33;;;;;;;1.96;100.00;100225.72;5053541;28;20558;-69
2022/03/01 04:15:11;;;;;;;8.50;7.70;;;;;;;1.87;100.00;100225.56;5053500;28;20197;-68
2022/03/01 04:17:38;;;;;;;8.33;7.63;;;;;;;1.82;100.00;100227.13;5053053;28;20216;-68
2022/03/01 04:20:07;;;;;;;8.53;7.73;;;;;;;1.84;100.00;100224.66;5053027;28;20211;-68
2022/03/01 04:22:35;;;;;;;14.47;9.07;;;;;;;1.84;100.00;100224.66;5051888;28;20201;-68
2022/03/01 04:25:02;;;;;;;17.37;10.77;;;;;;;1.81;100.00;100210.25;5053218;28;20658;-68
2022/03/01 04:27:29;;;;;;;13.73;10.33;;;;;;;1.88;100.00;100222.19;5051195;28;20198;-68
2022/03/01 04:29:56;;;;;;;13.80;9.03;;;;;;;1.92;100.00;100223.94;5050444;28;20656;-67
2022/03/01 04:32:23;;;;;;;9.33;8.57;;;;;;;1.89;100.00;100220.50;5052796;28;20275;-68
2022/03/01 04:34:50;;;;;;;9.10;8.40;;;;;;;1.87;100.00;100220.50;5052819;28;20203;-68
2022/03/01 04:37:17;;;;;;;8.20;7.50;;;;;;;1.92;100.00;100221.41;5052390;28;20221;-68
2022/03/01 04:39:45;;;;;;;8.87;8.17;;;;;;;1.92;100.00;100218.03;5052659;28;20212;-68
2022/03/01 04:42:12;;;;;;;7.97;7.37;;;;;;;1.71;100.00;100208.41;5052735;28;20251;-68
2022/03/01 04:44:39;;;;;;;9.40;8.47;;;;;;;1.80;100.00;100218.69;5052664;28;20561;-68
2022/03/01 04:47:06;;;;;;;9.23;8.43;;;;;;;1.79;100.00;100224.56;5052314;28;20296;-67
2022/03/01 04:49:33;;;;;;;10.93;9.93;;;;;;;1.78;100.00;100227.91;5052539;28;20201;-68
2022/03/01 04:52:00;;;;;;;12.03;10.47;;;;;;;1.79;100.00;100232.13;5052378;28;20211;-66
2022/03/01 04:54:27;;;;;;;9.67;8.63;;;;;;;1.79;100.00;100227.09;5052751;28;20193;-67
2022/03/01 04:56:55;;;;;;;7.60;6.80;;;;;;;1.83;100.00;100231.38;5051534;28;20247;-67
2022/03/01 04:59:22;;;;;;;7.43;6.93;;;;;;;1.86;100.00;100233.97;5051122;28;20209;-67
2022/03/01 05:01:49;;;;;;;6.37;5.97;;;;;;;1.87;100.00;100240.72;5052575;28;20201;-68
2022/03/01 05:04:16;;;;;;;6.93;6.47;;;;;;;1.86;100.00;100236.50;5052221;28;20201;-67
2022/03/01 05:06:43;;;;;;;6.30;5.90;;;;;;;1.84;100.00;100240.66;5052616;28;20197;-67
2022/03/01 05:09:12;;;;;;;6.93;6.37;;;;;;;1.87;100.00;100243.25;5052288;28;20743;-67
2022/03/01 05:11:39;;;;;;;6.60;6.10;;;;;;;1.88;100.00;100250.00;5052250;28;20215;-67
2022/03/01 05:14:07;;;;;;;7.33;6.67;;;;;;;1.72;100.00;100260.66;5052026;28;20216;-67
2022/03/01 05:16:34;;;;;;;7.17;5.90;;;;;;;1.71;100.00;100258.97;5047730;28;20204;-67
2022/03/01 05:19:01;;;;;;;6.43;5.97;;;;;;;1.72;100.00;100260.66;5051992;28;20704;-67
2022/03/01 05:21:30;;;;;;;6.57;6.07;;;;;;;1.74;100.00;100271.66;5051889;28;20208;-67
2022/03/01 05:23:57;;;;;;;6.70;5.83;;;;;;;1.72;100.00;100265.69;5051883;28;20199;-67
2022/03/01 05:26:24;;;;;;;6.60;5.97;;;;;;;1.68;100.00;100273.22;5051729;28;20197;-67
2022/03/01 05:28:50;;;;;;;8.60;7.00;;;;;;;1.62;100.00;100271.41;5052057;28;20200;-67
2022/03/01 05:31:19;;;;;;;6.20;5.80;;;;;;;1.61;100.00;100272.25;5050892;28;20222;-67
2022/03/01 05:33:46;;;;;;;7.17;6.70;;;;;;;1.61;100.00;100272.25;5050170;28;20254;-67
2022/03/01 05:36:13;;;;;;;6.60;6.10;;;;;;;1.63;100.00;100270.59;5051409;28;20654;-67
2022/03/01 05:38:41;;;;;;;6.93;6.43;;;;;;;1.48;100.00;100275.34;5051225;28;20228;-67
2022/03/01 05:41:08;;;;;;;6.43;5.93;;;;;;;1.51;100.00;100273.75;5051238;28;20758;-67
2022/03/01 05:43:35;;;;;;;6.63;6.00;;;;;;;1.49;100.00;100266.91;5051544;28;20196;-67
2022/03/01 05:46:02;;;;;;;7.27;6.33;;;;;;;1.58;100.00;100273.00;5051423;28;20587;-67
2022/03/01 05:48:30;;;;;;;6.77;5.93;;;;;;;1.64;100.00;100281.56;5050776;28;20634;-66
2022/03/01 05:50:57;;;;;;;6.33;5.83;;;;;;;1.64;100.00;100287.47;5050136;28;20275;-67
2022/03/01 05:53:25;;;;;;;8.13;7.33;;;;;;;1.57;100.00;100281.44;5050141;28;20283;-66
2022/03/01 05:55:52;;;;;;;8.13;7.10;;;;;;;1.64;100.00;100287.47;5050149;28;20573;-67
2022/03/01 05:58:19;;;;;;;8.63;7.60;;;;;;;1.66;100.00;100290.00;5048801;28;20255;-67
2022/03/01 06:00:46;;;;;;;22.77;12.57;;;;;;;1.65;100.00;100289.16;5050255;28;20212;-66
2022/03/01 06:03:13;;;;;;;25.27;12.47;;;;;;;1.59;100.00;100294.09;5050836;28;20200;-67
2022/03/01 06:05:41;;;;;;;31.60;13.50;;;;;;;1.57;100.00;100293.22;5050984;28;20203;-66
2022/03/01 06:08:08;;;;;;;29.47;19.90;;;;;;;1.48;100.00;100293.03;5051206;28;20205;-66
2022/03/01 06:10:35;;;;;;;13.20;10.07;;;;;;;1.44;100.00;100303.88;5050980;28;20205;-66
2022/03/01 06:13:02;;;;;;;20.03;13.80;;;;;;;1.46;100.00;100303.09;5051218;28;20216;-66
2022/03/01 06:15:29;;;;;;;9.10;8.20;;;;;;;1.53;100.00;100301.53;5051006;28;20703;-67
2022/03/01 06:17:56;;;;;;;17.23;10.33;;;;;;;1.47;100.00;100296.38;5050733;28;20223;-67
2022/03/01 06:20:22;;;;;;;40.43;25.40;;;;;;;1.39;100.00;100275.16;5050922;28;20291;-67
2022/03/01 06:22:51;;;;;;;15.17;11.40;;;;;;;1.62;100.00;100301.72;5050613;28;20284;-67
2022/03/01 06:25:18;;;;;;;8.40;7.70;;;;;;;1.65;100.00;100306.84;5050587;28;20287;-67
2022/03/01 06:27:45;;;;;;;12.40;11.10;;;;;;;1.65;100.00;100309.38;5050697;28;20275;-67
2022/03/01 06:30:12;;;;;;;13.43;12.23;;;;;;;1.69;100.00;100301.03;5050818;28;20291;-67
2022/03/01 06:32:39;;;;;;;10.77;9.67;;;;;;;1.79;100.00;100305.44;5050710;28;20204;-66
2022/03/01 06:35:07;;;;;;;12.40;8.93;;;;;;;1.84;100.00;100311.44;5050629;28;20204;-66
2022/03/01 06:37:34;;;;;;;9.60;7.13;;;;;;;1.91;100.00;100308.19;5050776;28;20311;-67
2022/03/01 06:40:06;;;;;;;8.60;7.77;;;;;;;1.94;100.00;100313.31;5050678;28;20281;-67
2022/03/01 06:42:33;;;;;;;8.10;7.40;;;;;;;1.96;100.00;100309.16;5050953;28;20196;-66
2022/03/01 06:45:00;;;;;;;7.73;7.13;;;;;;;2.01;100.00;100307.56;5050774;28;20299;-66
2022/03/01 06:47:27;;;;;;;8.93;7.50;;;;;;;2.07;100.00;100305.13;5048575;28;20291;-68
2022/03/01 06:49:54;;;;;;;7.20;6.50;;;;;;;2.21;100.00;100307.91;5047131;28;20676;-68
2022/03/01 06:52:21;;;;;;;8.17;7.47;;;;;;;2.41;100.00;100308.25;5048653;28;20684;-68
2022/03/01 06:54:47;;;;;;;9.50;8.30;;;;;;;2.61;100.00;100314.50;5047332;28;20291;-68
2022/03/01 06:57:16;;;;;;;8.67;7.87;;;;;;;2.83;100.00;100313.16;5049767;28;20212;-68
2022/03/01 06:59:43;;;;;;;9.57;8.73;;;;;;;3.00;100.00;100320.19;5049830;28;20201;-67
2022/03/01 07:02:10;;;;;;;8.60;7.90;;;;;;;3.16;100.00;100317.06;5049200;28;20212;-67
2022/03/01 07:04:37;;;;;;;19.97;11.20;;;;;;;3.20;100.00;100327.25;5047594;28;20244;-66
2022/03/01 07:07:05;;;;;;;21.87;14.43;;;;;;;3.15;100.00;100325.47;5048327;28;20219;-66
2022/03/01 07:09:32;;;;;;;13.77;10.50;;;;;;;3.13;100.00;100329.66;5049436;28;20255;-66
2022/03/01 07:11:59;;;;;;;8.77;8.07;;;;;;;3.07;100.00;100321.97;5048608;28;20204;-66
2022/03/01 07:14:27;;;;;;;11.40;8.43;;;;;;;2.95;100.00;100324.34;5048937;28;20200;-66
2022/03/01 07:16:54;;;;;;;8.17;7.53;;;;;;;2.91;100.00;100324.28;5048184;28;20212;-66
2022/03/01 07:19:21;;;;;;;18.43;12.67;;;;;;;2.77;100.00;100323.19;5048033;28;20259;-66
2022/03/01 07:21:48;;;;;;;21.40;12.40;;;;;;;2.76;100.00;100324.88;5046820;28;20205;-66
2022/03/01 07:24:15;;;;;;;23.83;15.00;;;;;;;2.81;100.00;100322.44;5049145;28;20291;-67
2022/03/01 07:26:42;;;;;;;26.00;15.90;;;;;;;2.81;100.00;100323.25;5049311;28;20652;-67
2022/03/01 07:29:08;;;;;;;28.83;15.13;;;;;;;2.85;100.00;100314.03;5049119;28;20203;-66
2022/03/01 07:31:37;;;;;;;29.30;17.53;;;;;;;2.83;100.00;100321.63;5047435;28;20654;-67
2022/03/01 07:34:04;;;;;;;17.83;11.87;;;;;;;2.87;100.00;100313.25;5047225;28;20204;-67
2022/03/01 07:36:31;;;;;;;11.70;9.37;;;;;;;2.93;100.00;100313.34;5048814;28;20260;-67
2022/03/01 07:38:58;;;;;;;10.37;9.37;;;;;;;2.96;100.00;100310.84;5048489;28;20614;-67
2022/03/01 07:41:25;;;;;;;11.33;10.40;;;;;;;2.98;100.00;100318.44;5050104;28;20228;-67
2022/03/01 07:43:52;;;;;;;13.00;9.87;;;;;;;2.99;100.00;100317.63;5052034;28;20291;-68
2022/03/01 07:46:19;;;;;;;9.30;8.50;;;;;;;3.00;100.00;100315.13;5050439;28;20205;-67
2022/03/01 07:48:48;;;;;;;9.27;8.23;;;;;;;3.01;100.00;100315.97;5052141;28;20247;-67
2022/03/01 07:51:15;;;;;;;12.57;10.63;;;;;;;3.06;100.00;100305.09;5050612;28;20208;-68
2022/03/01 07:53:42;;;;;;;10.90;9.73;;;;;;;3.15;100.00;100315.34;5051381;28;20258;-68
2022/03/01 07:56:09;;;;;;;16.90;10.80;;;;;;;3.23;100.00;100317.16;5048974;28;20303;-67
2022/03/01 07:58:36;;;;;;;12.60;11.40;;;;;;;3.28;100.00;100323.13;5050286;28;20312;-67
2022/03/01 08:01:03;;;;;;;14.70;12.07;;;;;;;3.28;100.00;100320.56;5051315;28;20300;-67
2022/03/01 08:03:29;;;;;;;13.97;11.67;;;;;;;3.32;100.00;100327.41;5049827;28;20280;-68
2022/03/01 08:05:58;;;;;;;17.20;10.30;;;;;;;3.27;100.00;100326.47;5051511;28;20200;-67
2022/03/01 08:08:26;;;;;;;10.00;9.10;;;;;;;3.27;100.00;100332.41;5050768;28;20224;-66
2022/03/01 08:10:53;;;;;;;10.60;8.77;;;;;;;3.18;100.00;100332.28;5052131;28;20215;-67
2022/03/01 08:13:20;;;;;;;12.50;9.37;;;;;;;3.10;100.00;100337.22;5051578;28;20740;-68
2022/03/01 08:15:46;;;;;;;11.87;10.77;;;;;;;2.98;100.00;100337.03;5052796;28;20227;-67
2022/03/01 08:18:13;;;;;;;10.93;9.67;;;;;;;3.09;100.00;100337.22;5052624;28;20712;-68
2022/03/01 08:20:40;;;;;;;9.60;8.63;;;;;;;3.12;100.00;100339.78;5052776;28;20197;-68
2022/03/01 08:23:09;;;;;;;8.67;7.90;;;;;;;3.06;100.00;100339.69;5051877;28;20215;-68
2022/03/01 08:25:35;;;;;;;11.83;9.90;;;;;;;3.11;100.00;100344.00;5051940;28;20212;-68
2022/03/01 08:28:03;;;;;;;24.77;11.67;;;;;;;3.18;100.00;100342.41;5052501;28;20699;-63
2022/03/01 08:30:30;;;;;;;14.70;10.63;;;;;;;3.31;100.00;100348.50;5048750;28;20204;-65
2022/03/01 08:32:58;;;;;;;17.67;12.77;;;;;;;3.41;100.00;100350.34;5051862;28;20201;-66
2022/03/01 08:35:25;;;;;;;10.17;9.10;;;;;;;3.46;100.00;100351.22;5051543;28;20196;-65
2022/03/01 08:37:52;;;;;;;6.93;6.50;;;;;;;3.46;100.00;100351.22;5046546;28;20236;-66
2022/03/01 08:40:22;;;;;;;8.23;7.73;;;;;;;3.47;100.00;100352.94;5051001;28;20232;-67
2022/03/01 08:42:49;;;;;;;14.23;12.70;;;;;;;3.55;100.00;100348.84;5051096;28;20203;-66
2022/03/01 08:45:16;;;;;;;18.40;10.73;;;;;;;3.48;100.00;100352.97;5047455;28;20205;-67
2022/03/01 08:47:43;;;;;;;14.43;9.67;;;;;;;3.58;100.00;100352.28;5051000;28;20307;-67
2022/03/01 08:50:11;;;;;;;12.33;10.53;;;;;;;3.64;100.00;100351.50;5050634;28;20671;-67
2022/03/01 08:52:39;;;;;;;11.37;9.97;;;;;;;3.68;100.00;100354.06;5049544;28;20200;-67
2022/03/01 08:55:07;;;;;;;8.63;7.93;;;;;;;3.60;100.00;100354.81;5047695;28;20213;-66
2022/03/01 08:57:36;;;;;;;8.97;8.13;;;;;;;3.57;100.00;100339.56;5050442;28;20707;-67
2022/03/01 09:00:05;;;;;;;8.63;7.83;;;;;;;3.57;99.61;100344.63;5050520;28;20220;-67
2022/03/01 09:02:32;;;;;;;11.17;8.87;;;;;;;3.74;100.00;100338.09;5050722;28;20232;-67
2022/03/01 09:04:59;;;;;;;9.37;8.63;;;;;;;3.86;100.00;100343.31;5050541;28;20201;-67
2022/03/01 09:07:26;;;;;;;17.07;10.83;;;;;;;3.96;100.00;100349.34;5050352;28;20295;-67
2022/03/01 09:09:53;;;;;;;13.33;10.27;;;;;;;4.07;100.00;100341.00;5049467;28;20215;-67
2022/03/01 09:12:20;;;;;;;10.13;9.17;;;;;;;4.08;98.00;100317.34;5049882;28;20201;-66
2022/03/01 09:14:49;;;;;;;21.90;14.10;;;;;;;4.30;98.71;100342.97;5049955;28;20308;-66
2022/03/01 09:17:16;;;;;;;9.83;8.90;;;;;;;4.37;97.58;100340.47;5048915;28;20289;-67
2022/03/01 09:19:43;;;;;;;11.93;7.63;;;;;;;4.49;97.31;100347.38;5048075;28;20212;-66
2022/03/01 09:22:10;;;;;;;8.33;7.63;;;;;;;4.62;99.14;100339.84;5050555;28;20200;-67
2022/03/01 09:24:39;;;;;;;8.30;7.43;;;;;;;4.74;98.35;100339.13;5050271;28;20266;-68
2022/03/01 09:27:06;;;;;;;8.47;7.80;;;;;;;4.61;95.31;100301.78;5050393;28;20209;-67
2022/03/01 09:29:34;;;;;;;11.33;10.33;;;;;;;4.87;95.11;100340.94;5049571;28;20228;-67
2022/03/01 09:32:02;;;;;;;9.20;8.23;;;;;;;4.99;95.69;100332.53;5049894;28;20291;-67
2022/03/01 09:34:29;;;;;;;9.47;8.57;;;;;;;5.10;94.71;100339.41;5050278;28;20585;-67
2022/03/01 09:36:56;;;;;;;9.70;8.70;;;;;;;5.15;93.10;100342.81;5049539;28;20211;-67
2022/03/01 09:39:24;;;;;;;14.27;10.53;;;;;;;5.20;92.47;100346.22;5050404;28;20696;-68
2022/03/01 09:41:53;;;;;;;10.57;8.70;;;;;;;5.25;93.63;100342.03;5049122;28;20284;-68
2022/03/01 09:44:20;;;;;;;9.73;8.67;;;;;;;5.20;93.06;100345.41;5049220;28;20204;-67
2022/03/01 09:46:47;;;;;;;10.37;8.67;;;;;;;5.26;91.92;100345.44;5049715;28;20216;-67
2022/03/01 09:49:16;;;;;;;11.80;7.83;;;;;;;5.38;94.90;100345.50;5050617;28;20205;-67
2022/03/01 09:51:43;;;;;;;10.13;7.97;;;;;;;5.55;92.79;100348.16;5050518;28;20333;-67
2022/03/01 09:54:10;;;;;;;10.50;8.80;;;;;;;5.73;96.54;100343.13;5051344;28;20303;-69
2022/03/01 09:56:37;;;;;;;9.10;8.27;;;;;;;5.93;93.14;100341.56;5051092;28;20203;-67
2022/03/01 09:59:04;;;;;;;9.23;8.43;;;;;;;6.03;90.23;100345.84;5050738;28;20227;-68
2022/03/01 10:01:31;;;;;;;9.43;8.60;;;;;;;6.16;92.05;100339.94;5050637;28;20708;-67
2022/03/01 10:04:09;;;;;;;9.50;8.67;;;;;;;6.31;90.61;100328.94;5050295;28;20289;-67
2022/03/01 10:06:43;;;;;;;15.33;9.57;;;;;;;6.39;88.91;100326.41;5050309;28;20274;-67
2022/03/01 10:09:15;;;;;;;9.00;8.27;;;;;;;6.45;86.01;100334.03;5050129;28;20584;-68
2022/03/01 10:11:42;;;;;;;8.90;8.03;;;;;;;6.55;85.39;100323.03;5049075;28;20207;-68
2022/03/01 10:14:10;;;;;;;14.90;9.93;;;;;;;6.64;83.99;100325.56;5049948;28;20212;-68
2022/03/01 10:16:39;;;;;;;8.18;7.47;;;;;;;6.40;81.34;100325.56;5048096;28;20497;-63
2022/03/01 10:19:11;;;;;;;11.10;10.13;;;;;;;6.63;81.03;100326.41;5049667;28;20448;-63
2022/03/01 10:21:38;;;;;;;8.37;7.57;;;;;;;6.79;81.80;100312.81;5050460;28;20201;-63
2022/03/01 10:24:08;;;;;;;10.43;9.50;;;;;;;6.94;81.52;100315.38;5050677;28;20301;-63
2022/03/01 10:26:37;;;;;;;7.20;6.70;;;;;;;6.72;76.19;100316.25;5050132;28;20220;-63
2022/03/01 10:29:06;;;;;;;6.80;6.20;;;;;;;6.82;74.91;100307.72;5050929;28;20215;-63
2022/03/01 10:31:34;;;;;;;6.33;5.93;;;;;;;6.95;74.88;100319.59;5050785;28;20197;-63
2022/03/01 10:34:03;;;;;;;6.27;5.87;;;;;;;7.14;78.85;100308.53;5050585;28;20200;-63
2022/03/01 10:36:33;;;;;;;17.33;6.93;;;;;;;7.24;77.04;100307.66;5050600;28;20295;-63
2022/03/01 10:39:01;;;;;;;7.13;6.47;;;;;;;7.41;78.81;100310.19;5050010;28;20244;-63
2022/03/01 10:41:33;;;;;;;6.70;6.27;;;;;;;7.53;75.84;100301.66;5050248;28;20235;-63
2022/03/01 10:44:03;;;;;;;5.50;5.20;;;;;;;7.48;73.61;100295.69;5050020;28;20204;-63
2022/03/01 10:46:31;;;;;;;5.10;4.80;;;;;;;7.45;69.75;100295.72;5049558;28;20205;-63
2022/03/01 10:49:08;;;;;;;4.30;4.00;;;;;;;7.28;68.51;100293.22;5050464;28;20197;-63
2022/03/01 10:51:36;;;;;;;5.30;4.87;;;;;;;7.08;67.86;100265.22;5050205;28;20193;-63
2022/03/01 10:54:03;;;;;;;6.50;4.10;;;;;;;7.26;66.80;100270.28;5050592;28;20201;-63
2022/03/01 10:56:38;;;;;;;12.97;8.23;;;;;;;7.38;68.38;100267.69;5047524;28;20204;-63
2022/03/01 10:59:08;;;;;;;6.87;6.27;;;;;;;7.54;71.37;100260.81;5049963;28;20307;-63
2022/03/01 11:01:35;;;;;;;6.00;5.40;;;;;;;7.68;72.23;100258.19;5050453;28;20714;-63
2022/03/01 11:04:03;;;;;;;5.23;4.93;;;;;;;7.80;69.81;100258.13;5050654;28;20279;-63
2022/03/01 11:06:30;;;;;;;7.23;4.53;;;;;;;8.03;74.06;100256.31;5050426;28;20201;-63
2022/03/01 11:08:59;;;;;;;5.30;5.00;;;;;;;8.24;76.81;100248.47;5045861;28;20683;-63
2022/03/01 11:11:27;;;;;;;5.00;4.70;;;;;;;8.46;70.56;100250.94;5050505;28;20254;-63
2022/03/01 11:13:57;;;;;;;5.43;5.13;;;;;;;8.57;70.23;100249.13;5050485;28;20209;-63
2022/03/01 11:16:34;;;;;;;5.23;4.83;;;;;;;8.57;67.76;100242.28;5053298;28;20287;-63
2022/03/01 11:19:28;;;;;;;5.50;5.10;;;;;;;8.69;64.19;100238.81;5051819;28;20231;-63
2022/03/01 11:21:57;;;;;;;7.53;6.17;;;;;;;8.47;65.88;100225.34;5039613;28;20546;-63
2022/03/01 11:24:25;;;;;;;26.10;11.60;;;;;;;8.57;65.36;100216.75;5054384;28;20197;-63